Time;durP1;ratioP1;P1;durP2;ratioP2;P2;SDS_P1;SDS_P2;PMS_P1;PMS_P2;Temp;Humidity;BMP_temperature;BMP_pressure;BME280_temperature;BME280_humidity;BME280_pressure;Samples;Min_cycle;Max_cycle;Signal;HPM_P1;HPM_P2
2021/11/30 00:01:37;;;;;;;15.98;10.03;;;;;;;1.10;96.05;98526.85;1739448;82;25459;-68
2021/11/30 00:04:04;;;;;;;17.30;10.85;;;;;;;1.09;95.81;98534.61;1737453;82;27471;-68
2021/11/30 00:06:34;;;;;;;12.80;8.98;;;;;;;1.08;95.64;98529.02;1739143;82;25456;-69
2021/11/30 00:09:21;;;;;;;15.05;10.20;;;;;;;1.08;95.57;98537.01;1708989;83;25760;-68
2021/11/30 00:11:38;;;;;;;14.70;9.45;;;;;;;1.08;95.64;98541.00;1707404;83;25660;-68
2021/11/30 00:14:05;;;;;;;15.93;8.88;;;;;;;1.08;95.65;98538.89;1709733;83;25711;-68
2021/11/30 00:16:31;;;;;;;11.93;7.95;;;;;;;1.08;95.57;98542.34;1709718;83;27480;-68
2021/11/30 00:18:58;;;;;;;12.75;7.83;;;;;;;1.08;95.24;98542.88;1709647;83;25574;-68
2021/11/30 00:21:25;;;;;;;9.85;7.37;;;;;;;1.07;95.12;98551.42;1709701;83;25644;-67
2021/11/30 00:23:52;;;;;;;12.43;7.90;;;;;;;1.07;95.10;98544.77;1683707;83;25685;-68
2021/11/30 00:26:18;;;;;;;13.00;8.25;;;;;;;1.09;95.08;98559.09;1683670;85;25480;-68
2021/11/30 00:28:46;;;;;;;14.38;8.85;;;;;;;1.15;95.82;98555.84;1683628;85;27521;-68
2021/11/30 00:31:14;;;;;;;17.27;8.25;;;;;;;1.16;95.32;98562.73;1683499;85;25785;-68
2021/11/30 00:33:41;;;;;;;11.63;8.23;;;;;;;1.16;95.18;98564.06;1683630;85;26103;-68
2021/11/30 00:36:08;;;;;;;13.28;8.58;;;;;;;1.14;94.81;98572.34;1742879;81;27715;-68
2021/11/30 00:38:38;;;;;;;11.97;8.10;;;;;;;1.12;94.76;98569.17;1743012;81;25700;-68
2021/11/30 00:41:06;;;;;;;11.50;7.78;;;;;;;1.11;94.82;98569.73;1748689;81;27508;-68
2021/11/30 00:43:36;;;;;;;15.63;8.20;;;;;;;1.12;94.56;98577.17;1755045;81;25558;-68
2021/11/30 00:46:17;;;;;;;12.03;8.45;;;;;;;1.11;94.61;98580.38;1754833;81;26004;-68
2021/11/30 00:48:41;;;;;;;9.68;7.65;;;;;;;1.10;94.58;98585.44;1754670;81;27647;-67
2021/11/30 00:51:14;;;;;;;12.15;8.18;;;;;;;1.11;94.71;98593.69;1755191;81;25602;-67
2021/11/30 00:53:42;;;;;;;13.60;7.87;;;;;;;1.13;94.83;98596.07;1752983;81;28550;-67
2021/11/30 00:56:09;;;;;;;11.50;7.87;;;;;;;1.15;94.84;98597.91;1755080;81;25722;-67
2021/11/30 00:58:36;;;;;;;12.70;7.33;;;;;;;1.14;94.67;98604.30;1755219;81;25388;-68
2021/11/30 01:01:04;;;;;;;13.10;7.20;;;;;;;1.13;94.53;98597.41;1755026;81;26050;-68
2021/11/30 01:03:31;;;;;;;11.05;7.70;;;;;;;1.14;94.59;98598.97;1755217;81;25407;-67
2021/11/30 01:05:59;;;;;;;10.15;7.47;;;;;;;1.15;94.56;98593.91;1755148;81;28160;-68
2021/11/30 01:08:26;;;;;;;10.82;7.20;;;;;;;1.16;94.48;98602.68;1755078;81;25414;-68
2021/11/30 01:10:54;;;;;;;10.43;6.95;;;;;;;1.17;94.51;98606.94;1755191;81;25634;-68
2021/11/30 01:13:21;;;;;;;9.93;7.70;;;;;;;1.16;94.30;98598.69;1755137;81;25650;-68
2021/11/30 01:15:49;;;;;;;10.72;6.67;;;;;;;1.16;94.31;98606.16;1755232;81;25436;-68
2021/11/30 01:18:16;;;;;;;13.58;6.67;;;;;;;1.16;94.27;98601.34;1729550;81;28263;-68
2021/11/30 01:20:43;;;;;;;10.32;7.03;;;;;;;1.15;94.21;98604.56;1755052;81;25638;-68
2021/11/30 01:23:10;;;;;;;9.98;7.40;;;;;;;1.15;94.10;98613.88;1750477;81;25646;-68
2021/11/30 01:25:37;;;;;;;10.30;6.55;;;;;;;1.16;94.05;98622.66;1747228;82;26297;-68
2021/11/30 01:28:05;;;;;;;10.82;6.67;;;;;;;1.15;94.06;98621.87;1747155;82;25703;-68
2021/11/30 01:30:33;;;;;;;10.93;6.60;;;;;;;1.16;94.05;98623.98;1747148;82;27568;-68
2021/11/30 01:32:59;;;;;;;8.73;6.42;;;;;;;1.16;93.86;98623.98;1747044;82;25838;-68
2021/11/30 01:35:27;;;;;;;10.78;7.85;;;;;;;1.15;93.79;98619.20;1747109;82;25675;-68
2021/11/30 01:37:54;;;;;;;10.23;7.17;;;;;;;1.16;93.91;98625.31;1747077;82;25683;-68
2021/11/30 01:40:24;;;;;;;12.00;7.20;;;;;;;1.15;93.72;98617.09;1747168;82;25687;-68
2021/11/30 01:42:52;;;;;;;11.70;8.10;;;;;;;1.16;93.76;98621.32;1747085;82;27439;-68
2021/11/30 01:45:43;;;;;;;16.32;7.92;;;;;;;1.16;93.59;98619.99;1747062;82;25700;-67
2021/11/30 01:50:34;;;;;;;11.22;6.90;;;;;;;1.15;93.32;98623.75;1720135;82;26085;-67
2021/11/30 01:53:02;;;;;;;11.48;6.87;;;;;;;1.15;93.43;98622.42;1746168;82;25493;-67
2021/11/30 01:55:31;;;;;;;8.20;6.40;;;;;;;1.12;93.18;98619.78;1747462;82;28059;-67
2021/11/30 01:58:00;;;;;;;11.07;6.20;;;;;;;1.08;92.48;98622.22;1720009;82;25699;-67
2021/11/30 02:00:29;;;;;;;9.98;7.12;;;;;;;1.06;92.50;98634.25;1747207;82;25461;-67
2021/11/30 02:02:57;;;;;;;9.78;6.78;;;;;;;1.04;92.56;98629.22;1747165;82;26049;-67
2021/11/30 02:05:24;;;;;;;10.28;8.13;;;;;;;1.03;92.49;98639.60;1747150;82;25661;-68
2021/11/30 02:07:51;;;;;;;11.43;8.23;;;;;;;1.01;92.51;98635.66;1747089;82;29717;-68
2021/11/30 02:10:18;;;;;;;10.58;6.92;;;;;;;0.99;92.08;98637.78;1746989;82;25725;-68
2021/11/30 02:12:45;;;;;;;10.78;7.25;;;;;;;0.97;92.14;98633.30;1747078;81;25660;-68
2021/11/30 02:15:13;;;;;;;8.40;6.28;;;;;;;0.96;92.03;98633.06;1747051;82;25595;-68
2021/11/30 02:17:40;;;;;;;9.08;6.65;;;;;;;0.93;91.99;98647.72;1747128;82;25613;-67
2021/11/30 02:20:09;;;;;;;10.82;6.55;;;;;;;0.91;91.95;98647.22;1747234;82;27468;-67
2021/11/30 02:22:36;;;;;;;9.33;6.70;;;;;;;0.91;91.92;98651.99;1747220;81;25693;-67
2021/11/30 02:25:06;;;;;;;10.05;6.87;;;;;;;0.91;91.68;98653.88;1747130;82;25856;-67
2021/11/30 02:27:32;;;;;;;8.10;6.47;;;;;;;0.89;91.79;98642.72;1747218;82;25610;-67
2021/11/30 02:29:59;;;;;;;7.47;6.45;;;;;;;0.87;91.69;98654.98;1747150;82;25377;-67
2021/11/30 02:32:25;;;;;;;10.93;7.28;;;;;;;0.85;91.60;98653.67;1747044;82;27489;-67
2021/11/30 02:34:54;;;;;;;11.57;7.97;;;;;;;0.84;91.75;98666.74;1747004;82;25648;-67
2021/11/30 02:37:27;;;;;;;11.12;7.03;;;;;;;0.82;91.72;98656.38;1747136;82;25769;-67
2021/11/30 02:39:54;;;;;;;13.85;7.92;;;;;;;0.81;91.83;98647.34;1746730;82;27708;-67
2021/11/30 02:42:21;;;;;;;7.20;6.17;;;;;;;0.78;91.82;98658.55;1747182;81;25656;-67
2021/11/30 02:44:48;;;;;;;11.28;6.62;;;;;;;0.76;91.85;98668.14;1747063;82;28159;-67
2021/11/30 02:47:15;;;;;;;8.45;6.12;;;;;;;0.73;91.44;98654.88;1747011;82;25878;-68
2021/11/30 02:49:44;;;;;;;8.48;6.72;;;;;;;0.70;91.57;98661.31;1747120;82;25546;-67
2021/11/30 02:52:17;;;;;;;9.97;7.10;;;;;;;0.68;91.75;98666.10;1747320;82;25677;-67
2021/11/30 02:54:47;;;;;;;9.50;6.45;;;;;;;0.67;91.99;98669.31;1747056;82;25642;-67
2021/11/30 02:57:17;;;;;;;12.30;6.92;;;;;;;0.65;92.18;98664.81;1747092;82;27445;-67
2021/11/30 02:59:49;;;;;;;11.00;7.17;;;;;;;0.64;92.28;98672.53;1747080;82;25555;-67
2021/11/30 03:02:28;;;;;;;10.38;7.20;;;;;;;0.65;92.43;98676.79;1747112;82;25583;-67
2021/11/30 03:04:59;;;;;;;;;;;;;;;0.64;92.49;98684.50;1749729;82;25725;-67
2021/11/30 03:07:35;;;;;;;13.00;7.67;;;;;;;0.62;92.56;98681.88;1747229;82;25673;-67
2021/11/30 03:09:59;;;;;;;11.95;8.18;;;;;;;0.57;92.58;98686.72;1746670;82;27473;-67
2021/11/30 03:12:26;;;;;;;13.78;8.18;;;;;;;0.54;92.62;98692.59;1747180;82;25397;-66
2021/11/30 03:14:53;;;;;;;17.92;10.15;;;;;;;0.52;92.80;98686.22;1747171;82;25386;-67
2021/11/30 03:17:20;;;;;;;17.30;9.33;;;;;;;0.52;92.94;98688.88;1747184;82;25747;-67
2021/11/30 03:19:49;;;;;;;13.50;8.00;;;;;;;0.52;93.06;98694.75;1747260;81;25565;-67
2021/11/30 03:22:16;;;;;;;12.10;8.88;;;;;;;0.53;93.14;98695.02;1747250;82;27495;-67
2021/11/30 03:24:42;;;;;;;14.87;7.53;;;;;;;0.49;93.10;98696.09;1747155;82;25548;-68
2021/11/30 03:27:09;;;;;;;10.43;7.33;;;;;;;0.48;93.13;98697.73;1747211;82;25650;-68
2021/11/30 03:29:37;;;;;;;13.38;7.72;;;;;;;0.44;93.28;98696.14;1747260;82;25735;-68
2021/11/30 03:32:12;;;;;;;12.05;7.28;;;;;;;0.42;93.20;98702.83;1747215;82;25777;-68
2021/11/30 03:34:36;;;;;;;12.13;7.15;;;;;;;0.40;93.30;98697.78;1746151;82;27561;-66
2021/11/30 03:37:07;;;;;;;12.00;6.65;;;;;;;0.41;93.38;98699.90;1747106;82;25763;-67
2021/11/30 03:39:35;;;;;;;11.22;6.53;;;;;;;0.37;93.19;98695.68;1747177;82;25621;-67
2021/11/30 03:42:01;;;;;;;8.03;5.67;;;;;;;0.35;93.28;98698.62;1747167;81;25712;-67
2021/11/30 03:44:29;;;;;;;9.55;5.83;;;;;;;0.35;93.32;98688.52;1747243;82;25599;-66
2021/11/30 03:46:57;;;;;;;9.10;6.33;;;;;;;0.34;93.28;98688.25;1747148;82;27530;-67
2021/11/30 03:49:24;;;;;;;8.88;6.30;;;;;;;0.35;93.35;98692.52;1747150;81;25706;-67
2021/11/30 03:51:51;;;;;;;10.30;6.70;;;;;;;0.36;93.30;98696.77;1747108;82;25688;-67
2021/11/30 03:54:18;;;;;;;8.15;6.55;;;;;;;0.35;93.26;98696.50;1747190;82;25610;-67
2021/11/30 03:56:47;;;;;;;10.68;6.90;;;;;;;0.36;93.25;98696.77;1747189;82;25602;-67
2021/11/30 03:59:15;;;;;;;8.88;7.15;;;;;;;0.36;93.27;98712.19;1747142;82;28262;-67
2021/11/30 04:01:42;;;;;;;10.38;6.62;;;;;;;0.36;93.29;98698.89;1747067;81;25697;-68
2021/11/30 04:04:20;;;;;;;10.60;7.10;;;;;;;0.36;93.19;98705.53;1747172;81;25712;-68
2021/11/30 04:06:41;;;;;;;11.93;7.60;;;;;;;0.38;93.11;98713.23;1745996;82;25684;-68
2021/11/30 04:09:07;;;;;;;9.85;6.72;;;;;;;0.39;93.12;98712.14;1747125;82;25595;-68
2021/11/30 04:11:34;;;;;;;9.28;6.33;;;;;;;0.39;93.04;98706.83;1747117;82;27510;-67
2021/11/30 04:14:01;;;;;;;9.25;6.42;;;;;;;0.40;92.82;98715.63;1747123;82;25489;-67
2021/11/30 04:16:28;;;;;;;11.03;6.58;;;;;;;0.40;92.84;98715.08;1747055;82;25460;-67
2021/11/30 04:18:55;;;;;;;6.87;5.83;;;;;;;0.41;92.79;98721.18;1747077;82;25617;-67
2021/11/30 04:21:23;;;;;;;9.63;5.78;;;;;;;0.39;92.40;98713.48;1747204;82;25666;-67
2021/11/30 04:23:49;;;;;;;9.73;5.60;;;;;;;0.41;92.52;98717.19;1748331;82;27549;-68
2021/11/30 04:26:18;;;;;;;9.20;5.70;;;;;;;0.42;92.55;98714.80;1750009;81;25654;-68
2021/11/30 04:28:46;;;;;;;9.83;5.80;;;;;;;0.43;92.27;98728.37;1750286;81;25643;-68
2021/11/30 04:31:15;;;;;;;8.15;5.62;;;;;;;0.43;92.27;98728.37;1749926;82;26124;-67
2021/11/30 04:33:42;;;;;;;8.10;5.08;;;;;;;0.45;92.40;98723.55;1750273;82;32776;-67
2021/11/30 04:36:09;;;;;;;7.75;5.17;;;;;;;0.45;92.11;98736.86;1750117;82;28088;-67
2021/11/30 04:38:38;;;;;;;6.58;4.33;;;;;;;0.45;91.94;98737.64;1749967;81;25575;-67
2021/11/30 04:41:06;;;;;;;5.47;4.43;;;;;;;0.45;91.86;98739.52;1750264;82;25702;-67
2021/11/30 04:43:36;;;;;;;8.25;4.62;;;;;;;0.47;91.96;98744.80;1750075;81;25475;-67
2021/11/30 04:46:17;;;;;;;5.50;4.53;;;;;;;0.48;91.99;98740.30;1750092;82;25479;-67
2021/11/30 04:48:41;;;;;;;6.37;4.53;;;;;;;0.49;91.82;98741.86;1748876;82;27540;-67
2021/11/30 04:51:12;;;;;;;7.87;4.42;;;;;;;0.49;91.77;98746.64;1750017;82;25666;-67
2021/11/30 04:53:39;;;;;;;9.40;5.33;;;;;;;0.50;91.70;98744.25;1749992;82;25433;-67
2021/11/30 04:56:07;;;;;;;7.15;4.80;;;;;;;0.52;91.62;98743.97;1750047;81;25685;-67
2021/11/30 04:58:34;;;;;;;6.00;4.50;;;;;;;0.52;91.54;98741.31;1750338;81;25415;-67
2021/11/30 05:01:01;;;;;;;5.92;4.70;;;;;;;0.53;91.44;98750.89;1750048;82;28062;-67
2021/11/30 05:03:28;;;;;;;8.50;5.95;;;;;;;0.54;91.61;98745.81;1749979;82;25425;-67
2021/11/30 05:05:55;;;;;;;10.58;6.28;;;;;;;0.56;91.42;98750.30;1750011;82;25597;-67
2021/11/30 05:08:22;;;;;;;9.93;5.15;;;;;;;0.55;91.06;98745.53;1749962;82;25567;-67
2021/11/30 05:10:48;;;;;;;7.83;5.03;;;;;;;0.54;91.07;98748.47;1750034;82;25740;-67
2021/11/30 05:13:15;;;;;;;8.13;5.00;;;;;;;0.55;90.92;98754.06;1750007;82;27492;-67
2021/11/30 05:15:42;;;;;;;9.50;5.30;;;;;;;0.53;90.83;98747.69;1749921;82;25656;-67
2021/11/30 05:18:10;;;;;;;7.42;5.08;;;;;;;0.52;90.96;98746.08;1724608;82;25728;-67
2021/11/30 05:20:40;;;;;;;7.60;4.83;;;;;;;0.51;90.27;98753.02;1749977;82;25705;-67
2021/11/30 05:23:09;;;;;;;5.67;4.53;;;;;;;0.49;90.27;98757.83;1750055;82;25681;-67
2021/11/30 05:25:37;;;;;;;7.03;5.00;;;;;;;0.47;90.15;98762.09;1750066;82;27457;-67
2021/11/30 05:28:05;;;;;;;7.22;4.92;;;;;;;0.44;90.09;98761.31;1749846;82;27325;-67
2021/11/30 05:30:36;;;;;;;5.55;4.50;;;;;;;0.42;90.16;98767.45;1750058;81;25269;-67
2021/11/30 05:33:06;;;;;;;7.87;4.62;;;;;;;0.43;90.07;98773.59;1750061;81;26055;-68
2021/11/30 05:35:33;;;;;;;10.53;5.35;;;;;;;0.40;89.86;98770.16;1750001;82;25771;-66
2021/11/30 05:38:01;;;;;;;7.78;5.15;;;;;;;0.38;89.52;98770.97;1750009;81;27463;-67
2021/11/30 05:40:28;;;;;;;10.43;5.62;;;;;;;0.35;89.64;98765.66;1749905;82;27280;-67
2021/11/30 05:42:56;;;;;;;9.78;5.20;;;;;;;0.34;89.71;98779.50;1749994;81;25665;-66
2021/11/30 05:45:23;;;;;;;8.10;5.03;;;;;;;0.33;89.63;98770.47;1749972;82;25760;-68
2021/11/30 05:47:49;;;;;;;9.20;5.45;;;;;;;0.29;89.70;98772.90;1750090;81;25665;-67
2021/11/30 05:50:16;;;;;;;8.88;5.20;;;;;;;0.30;89.64;98775.02;1750066;81;27482;-67
2021/11/30 05:52:43;;;;;;;6.20;4.92;;;;;;;0.30;89.43;98784.32;1749927;82;25632;-67
2021/11/30 05:55:11;;;;;;;5.25;4.50;;;;;;;0.26;89.19;98777.44;1748709;82;25667;-67
2021/11/30 05:57:41;;;;;;;7.12;4.95;;;;;;;0.25;89.09;98773.72;1685991;84;26029;-67
2021/11/30 06:00:10;;;;;;;;;;;;;;;0.21;88.75;98783.34;1728190;83;25702;-67
2021/11/30 06:05:27;;;;;;;9.20;5.42;;;;;;;0.14;88.87;98781.77;1712376;83;25712;-67
2021/11/30 06:07:56;;;;;;;8.23;5.70;;;;;;;0.09;88.79;98782.35;1712361;83;25730;-66
2021/11/30 06:10:23;;;;;;;9.90;6.85;;;;;;;0.06;88.77;98784.23;1712301;83;25681;-67
2021/11/30 06:12:51;;;;;;;8.18;5.50;;;;;;;0.03;88.84;98782.91;1755570;81;25637;-66
2021/11/30 06:15:18;;;;;;;8.95;5.33;;;;;;;-0.02;88.79;98786.41;1755658;81;27469;-66
2021/11/30 06:17:45;;;;;;;9.13;5.83;;;;;;;-0.04;88.99;98784.53;1755495;81;25690;-66
2021/11/30 06:20:13;;;;;;;10.03;6.15;;;;;;;-0.04;89.24;98785.08;1755626;81;25411;-66
2021/11/30 06:22:40;;;;;;;8.60;5.90;;;;;;;-0.05;89.23;98780.82;1755494;81;25719;-67
2021/11/30 06:25:09;;;;;;;9.88;5.67;;;;;;;-0.06;89.25;98789.34;1755577;81;25587;-67
2021/11/30 06:27:36;;;;;;;8.80;5.65;;;;;;;-0.06;89.32;98788.55;1755522;81;27468;-67
2021/11/30 06:30:07;;;;;;;6.53;5.53;;;;;;;-0.08;89.25;98791.48;1755534;81;25468;-67
2021/11/30 06:32:34;;;;;;;9.88;5.80;;;;;;;-0.08;89.42;98791.48;1755598;81;25683;-67
2021/11/30 06:35:02;;;;;;;7.40;5.55;;;;;;;-0.09;89.25;98793.09;1755481;81;25732;-66
2021/11/30 06:37:29;;;;;;;7.28;5.45;;;;;;;-0.10;89.24;98794.95;1755603;81;25553;-66
2021/11/30 06:39:57;;;;;;;8.30;6.05;;;;;;;-0.10;89.24;98797.62;1755582;81;27548;-66
2021/11/30 06:42:25;;;;;;;7.37;5.85;;;;;;;-0.10;89.33;98800.28;1755371;81;25606;-67
2021/11/30 06:44:52;;;;;;;9.33;6.10;;;;;;;-0.12;88.71;98794.45;1755643;81;25408;-65
2021/11/30 06:47:19;;;;;;;7.47;6.05;;;;;;;-0.14;88.91;98790.45;1755741;81;25649;-67
2021/11/30 06:49:47;;;;;;;9.13;6.08;;;;;;;-0.14;88.85;98795.23;1755808;81;25407;-66
2021/11/30 06:52:14;;;;;;;6.83;5.83;;;;;;;-0.16;88.75;98801.36;1755733;81;27481;-67
2021/11/30 06:54:48;;;;;;;8.20;6.37;;;;;;;-0.18;88.71;98793.42;1755801;81;25697;-67
2021/11/30 06:57:14;;;;;;;10.23;7.20;;;;;;;-0.16;88.74;98792.61;1755649;81;25618;-66
2021/11/30 06:59:43;;;;;;;7.45;6.25;;;;;;;-0.16;88.92;98800.03;1755602;81;25550;-66
2021/11/30 07:02:12;;;;;;;11.95;7.00;;;;;;;-0.15;88.91;98802.96;1755886;81;25645;-66
2021/11/30 07:04:42;;;;;;;10.20;6.80;;;;;;;-0.13;89.18;98790.73;1755852;81;29708;-66
2021/11/30 07:07:20;;;;;;;10.43;6.72;;;;;;;-0.12;89.12;98799.77;1755530;81;25712;-66
2021/11/30 07:09:57;;;;;;;11.85;7.70;;;;;;;-0.08;89.35;98802.66;1753988;81;25581;-66
2021/11/30 07:12:25;;;;;;;14.15;8.10;;;;;;;-0.05;89.41;98800.76;1752161;81;25660;-67
2021/11/30 07:14:40;;;;;;;9.88;7.08;;;;;;;-0.04;89.49;98793.84;1752397;81;25449;-66
2021/11/30 07:17:07;;;;;;;13.22;8.08;;;;;;;0.02;89.63;98788.49;1755640;81;27489;-66
2021/11/30 07:19:35;;;;;;;12.00;8.08;;;;;;;0.05;89.63;98790.61;1755744;81;25795;-66
2021/11/30 07:22:02;;;;;;;11.30;7.85;;;;;;;0.01;89.25;98774.95;1755806;81;25588;-67
2021/11/30 07:24:29;;;;;;;13.00;8.33;;;;;;;0.08;89.54;98786.86;1755810;81;25714;-67
2021/11/30 07:26:55;;;;;;;13.98;8.80;;;;;;;0.11;89.63;98784.98;1727449;83;25389;-67
2021/11/30 07:29:22;;;;;;;14.10;8.48;;;;;;;0.15;89.58;98786.55;1724900;83;27560;-67
2021/11/30 07:31:49;;;;;;;14.60;8.15;;;;;;;0.16;89.80;98776.97;1712339;83;25712;-67
2021/11/30 07:34:16;;;;;;;22.15;12.68;;;;;;;0.18;89.81;98778.81;1712581;83;25579;-67
2021/11/30 07:36:43;;;;;;;13.83;9.00;;;;;;;0.22;89.61;98771.61;1712426;83;25689;-66
2021/11/30 07:39:10;;;;;;;13.68;9.63;;;;;;;0.23;89.60;98771.88;1683658;85;25645;-66
2021/11/30 07:41:38;;;;;;;15.83;10.08;;;;;;;0.24;89.59;98761.48;1683651;85;27515;-66
2021/11/30 07:44:06;;;;;;;16.77;10.03;;;;;;;0.26;89.52;98763.35;1683518;85;25552;-66
2021/11/30 07:46:35;;;;;;;15.88;9.48;;;;;;;0.27;89.46;98756.40;1683589;85;25756;-66
2021/11/30 07:49:03;;;;;;;13.85;9.83;;;;;;;0.29;89.69;98751.62;1683546;85;25699;-66
2021/11/30 07:51:32;;;;;;;15.15;10.03;;;;;;;0.31;89.50;98746.81;1683601;85;25740;-66
2021/11/30 07:53:59;;;;;;;14.60;9.28;;;;;;;0.32;89.52;98747.08;1683599;85;27501;-66
2021/11/30 07:56:27;;;;;;;16.40;9.93;;;;;;;0.36;89.70;98748.64;1683296;85;25749;-67
2021/11/30 07:58:54;;;;;;;16.10;10.32;;;;;;;0.39;89.71;98737.42;1683471;85;25754;-67
2021/11/30 08:01:20;;;;;;;14.28;10.03;;;;;;;0.42;89.55;98735.53;1683324;85;25612;-67
2021/11/30 08:03:47;;;;;;;14.38;9.83;;;;;;;0.45;89.67;98731.54;1683625;84;25705;-67
2021/11/30 08:06:15;;;;;;;15.25;10.32;;;;;;;0.47;89.69;98724.84;1683651;85;27447;-67
2021/11/30 08:08:42;;;;;;;19.85;11.53;;;;;;;0.49;89.46;98720.58;1685496;84;25815;-67
2021/11/30 08:11:09;;;;;;;15.45;9.63;;;;;;;0.49;89.21;98721.91;1704991;83;25702;-66
2021/11/30 08:13:36;;;;;;;14.70;9.28;;;;;;;0.48;89.33;98714.47;1704519;82;25636;-67
2021/11/30 08:16:04;;;;;;;16.87;9.50;;;;;;;0.50;89.17;98712.32;1697420;84;25716;-67
2021/11/30 08:18:30;;;;;;;14.35;9.63;;;;;;;0.51;89.40;98707.78;1697995;84;27566;-67
2021/11/30 08:20:57;;;;;;;14.93;10.23;;;;;;;0.50;89.23;98704.34;1697759;84;25769;-67
2021/11/30 08:23:23;;;;;;;15.78;10.25;;;;;;;0.51;89.30;98701.95;1698083;84;25617;-66
2021/11/30 08:25:50;;;;;;;15.35;10.30;;;;;;;0.53;89.43;98695.02;1699627;84;25768;-67
2021/11/30 08:28:17;;;;;;;16.70;10.30;;;;;;;0.51;89.40;98688.64;1700675;84;25615;-66
2021/11/30 08:30:46;;;;;;;16.52;10.70;;;;;;;0.52;89.44;98687.55;1700725;84;27594;-66
2021/11/30 08:33:14;;;;;;;14.30;9.48;;;;;;;0.53;89.36;98689.69;1700808;84;25689;-67
2021/11/30 08:35:41;;;;;;;14.90;10.38;;;;;;;0.49;89.29;98682.78;1700839;84;25209;-67
2021/11/30 08:38:08;;;;;;;14.68;9.75;;;;;;;0.49;89.37;98683.33;1700760;84;25715;-67
2021/11/30 08:40:36;;;;;;;15.35;9.63;;;;;;;0.50;89.54;98683.60;1700796;84;25690;-66
2021/11/30 08:43:03;;;;;;;17.17;11.30;;;;;;;0.51;89.30;98691.81;1700794;84;28169;-67
2021/11/30 08:45:30;;;;;;;16.85;10.63;;;;;;;0.50;89.44;98675.07;1709517;82;25491;-67
2021/11/30 08:47:57;;;;;;;19.32;11.60;;;;;;;0.54;89.54;98677.95;1730020;82;25546;-67
2021/11/30 08:50:24;;;;;;;17.40;10.93;;;;;;;0.57;89.06;98675.29;1730010;82;25491;-67
2021/11/30 08:52:52;;;;;;;17.77;11.38;;;;;;;0.61;89.11;98668.31;1730006;82;25628;-67
2021/11/30 08:55:18;;;;;;;15.58;10.13;;;;;;;0.65;89.11;98662.70;1730044;82;25854;-67
2021/11/30 08:57:45;;;;;;;16.55;10.95;;;;;;;0.70;88.80;98658.10;1729998;82;25724;-66
2021/11/30 09:00:18;;;;;;;17.77;11.75;;;;;;;0.73;89.02;98648.23;1711716;83;25424;-66
2021/11/30 09:02:45;;;;;;;18.73;11.03;;;;;;;0.80;88.75;98645.23;1711289;83;25655;-67
2021/11/30 09:05:12;;;;;;;17.02;10.72;;;;;;;0.84;88.18;98654.22;1711668;83;25690;-67
2021/11/30 09:07:40;;;;;;;15.68;10.05;;;;;;;0.87;88.05;98640.86;1730035;82;27509;-67
2021/11/30 09:10:08;;;;;;;14.05;9.88;;;;;;;0.95;87.29;98626.92;1729935;82;25650;-66
2021/11/30 09:12:35;;;;;;;13.48;9.43;;;;;;;1.01;87.94;98631.11;1729943;82;25629;-67
2021/11/30 09:15:05;;;;;;;12.80;9.58;;;;;;;1.10;87.08;98629.93;1729964;82;25447;-67
2021/11/30 09:17:31;;;;;;;13.22;8.95;;;;;;;1.19;87.88;98634.07;1730200;82;25508;-67
2021/11/30 09:19:58;;;;;;;16.35;10.25;;;;;;;1.27;86.82;98627.55;1730064;82;27491;-66
2021/11/30 09:22:27;;;;;;;14.10;8.33;;;;;;;1.38;87.67;98618.90;1729857;82;25720;-67
2021/11/30 09:24:57;;;;;;;9.60;7.95;;;;;;;1.52;86.46;98620.84;1729747;82;25686;-67
2021/11/30 09:27:23;;;;;;;10.88;7.95;;;;;;;1.79;86.46;98607.61;1726307;82;25638;-67
2021/11/30 09:29:50;;;;;;;11.25;7.45;;;;;;;2.26;86.47;98608.14;1726496;83;25611;-67
2021/11/30 09:32:17;;;;;;;9.83;7.17;;;;;;;2.60;83.62;98605.87;1726596;83;27565;-67
2021/11/30 09:34:44;;;;;;;8.85;6.75;;;;;;;2.52;81.51;98598.58;1726534;83;25557;-67
2021/11/30 09:37:11;;;;;;;9.75;6.35;;;;;;;2.42;81.36;98593.44;1726540;83;25673;-67
2021/11/30 09:39:38;;;;;;;10.40;6.72;;;;;;;2.26;77.87;98603.59;1726558;83;25670;-67
2021/11/30 09:42:12;;;;;;;8.73;6.50;;;;;;;2.10;78.60;98584.96;1726610;83;25409;-68
2021/11/30 09:44:40;;;;;;;6.47;5.55;;;;;;;1.97;80.45;98578.50;1722863;82;27108;-68
2021/11/30 09:47:09;;;;;;;8.98;6.50;;;;;;;1.88;79.10;98576.28;1721803;83;25467;-68
2021/11/30 09:49:36;;;;;;;8.78;5.30;;;;;;;1.79;80.45;98575.61;1721453;83;25645;-68
2021/11/30 09:52:05;;;;;;;8.08;5.75;;;;;;;1.72;79.95;98566.39;1721447;83;25640;-68
2021/11/30 09:54:32;;;;;;;7.47;5.35;;;;;;;1.68;79.90;98553.65;1721807;83;25689;-68
2021/11/30 09:57:00;;;;;;;9.23;5.55;;;;;;;1.63;77.52;98543.07;1721641;83;27497;-68
2021/11/30 09:59:27;;;;;;;7.30;5.58;;;;;;;1.57;79.40;98543.48;1721156;83;26314;-66
2021/11/30 10:01:54;;;;;;;8.38;6.10;;;;;;;1.54;79.05;98543.50;1692953;83;25687;-66
2021/11/30 10:04:21;;;;;;;7.22;5.15;;;;;;;1.48;79.07;98540.66;1721614;83;25746;-67
2021/11/30 10:06:48;;;;;;;7.25;5.40;;;;;;;1.47;78.94;98525.77;1721694;83;25467;-67
2021/11/30 10:09:20;;;;;;;8.35;5.87;;;;;;;1.42;79.38;98521.86;1721600;83;28319;-67
2021/11/30 10:12:00;;;;;;;9.20;6.03;;;;;;;1.41;79.35;98519.72;1721594;83;25699;-66
2021/11/30 10:14:34;;;;;;;10.13;5.92;;;;;;;1.43;80.21;98521.57;1721682;83;25651;-67
2021/11/30 10:17:21;;;;;;;7.62;5.70;;;;;;;1.43;79.63;98512.25;1720847;81;25577;-68
2021/11/30 10:20:04;;;;;;;8.40;5.70;;;;;;;1.48;79.27;98510.02;1721277;83;25652;-67
2021/11/30 10:22:54;;;;;;;13.40;6.12;;;;;;;1.48;79.69;98508.16;1721366;83;27489;-67
2021/11/30 10:25:25;;;;;;;8.65;5.85;;;;;;;1.47;79.08;98495.12;1722044;82;25917;-67
2021/11/30 10:27:56;;;;;;;9.75;6.65;;;;;;;1.39;77.11;98496.58;1729468;82;25612;-67
2021/11/30 10:30:31;;;;;;;16.35;7.50;;;;;;;1.36;78.95;98497.16;1729586;82;25642;-67
2021/11/30 10:33:05;;;;;;;10.68;6.75;;;;;;;1.29;77.83;98482.09;1729565;82;25715;-67
2021/11/30 10:35:33;;;;;;;9.88;6.30;;;;;;;1.23;78.00;98478.73;1729755;82;27323;-67
2021/11/30 10:38:02;;;;;;;10.85;7.40;;;;;;;1.22;79.20;98469.15;1729648;82;25728;-67
2021/11/30 10:40:33;;;;;;;11.30;7.28;;;;;;;1.21;79.05;98464.11;1729631;83;30209;-67
2021/11/30 10:43:05;;;;;;;11.45;7.42;;;;;;;1.34;79.49;98484.67;1729653;82;25620;-67
2021/11/30 10:45:37;;;;;;;12.35;7.03;;;;;;;1.22;79.48;98461.70;1729717;83;25642;-67
2021/11/30 10:48:17;;;;;;;12.58;7.85;;;;;;;1.21;79.78;98451.60;1729524;83;27392;-67
2021/11/30 10:50:56;;;;;;;12.65;8.23;;;;;;;1.21;79.86;98452.94;1729361;83;25569;-68
2021/11/30 10:53:30;;;;;;;12.53;8.07;;;;;;;1.15;80.45;98445.31;1729649;83;25699;-67
2021/11/30 10:56:04;;;;;;;14.50;8.70;;;;;;;1.04;80.81;98454.80;1729565;83;25473;-68
2021/11/30 10:58:37;;;;;;;16.87;9.25;;;;;;;0.91;81.61;98440.89;1729751;83;25588;-67
2021/11/30 11:01:19;;;;;;;14.33;9.88;;;;;;;0.81;82.12;98426.41;1729409;82;27404;-68
2021/11/30 11:04:05;;;;;;;12.30;9.00;;;;;;;0.71;82.83;98423.36;1729584;82;25622;-67
2021/11/30 11:06:35;;;;;;;15.30;9.43;;;;;;;0.62;83.41;98413.13;1728968;82;25643;-65
2021/11/30 11:09:06;;;;;;;16.20;10.53;;;;;;;0.57;83.99;98403.34;1728618;83;25670;-66
2021/11/30 11:11:38;;;;;;;16.25;10.32;;;;;;;0.49;84.28;98402.11;1700249;84;25609;-66
2021/11/30 11:14:19;;;;;;;17.20;10.72;;;;;;;0.45;84.73;98392.36;1698660;84;27742;-67
2021/11/30 11:16:51;;;;;;;15.95;10.85;;;;;;;0.43;85.29;98383.88;1700124;84;27262;-65
2021/11/30 11:19:21;;;;;;;17.35;10.93;;;;;;;0.43;86.02;98374.57;1700597;84;25727;-65
2021/11/30 11:21:48;;;;;;;16.35;10.68;;;;;;;0.41;86.15;98371.39;1697390;84;26149;-67
2021/11/30 11:24:25;;;;;;;21.15;11.70;;;;;;;0.42;86.26;98370.31;1700316;84;25667;-66
2021/11/30 11:26:57;;;;;;;16.52;11.55;;;;;;;0.39;86.65;98357.59;1700097;84;27461;-66
2021/11/30 11:29:44;;;;;;;17.50;11.75;;;;;;;0.39;86.83;98358.92;1700662;84;25657;-67
2021/11/30 11:32:12;;;;;;;18.90;12.13;;;;;;;0.38;86.97;98347.50;1700691;84;25618;-67
2021/11/30 11:34:39;;;;;;;20.40;12.47;;;;;;;0.38;87.27;98336.86;1700721;84;25732;-67
2021/11/30 11:37:11;;;;;;;19.07;12.25;;;;;;;0.40;87.86;98334.70;1700867;84;26287;-68
2021/11/30 11:39:39;;;;;;;17.52;12.15;;;;;;;0.42;88.64;98325.09;1700637;84;27366;-68
2021/11/30 11:42:12;;;;;;;22.10;12.58;;;;;;;0.42;88.16;98311.25;1758316;81;25696;-68
2021/11/30 11:44:41;;;;;;;19.30;12.18;;;;;;;0.46;88.46;98303.48;1728614;82;25642;-67
2021/11/30 11:47:13;;;;;;;21.30;12.85;;;;;;;0.48;88.95;98294.14;1727362;83;25793;-67